createdAt,value
2023-03-30T00:00:49.897Z,98506.47
2023-03-30T00:01:54.732Z,98509.81
2023-03-30T00:02:57.105Z,98500.31
2023-03-30T00:04:00.645Z,98511.38
2023-03-30T00:05:04.844Z,98502.63
2023-03-30T00:06:09.041Z,98505.91
2023-03-30T00:07:11.455Z,98504.91
2023-03-30T00:08:18.316Z,98505.63
2023-03-30T00:09:22.844Z,98505.53
2023-03-30T00:10:25.327Z,98507.19
2023-03-30T00:11:34.230Z,98502.88
2023-03-30T00:12:37.933Z,98506.19
2023-03-30T00:13:41.827Z,98511.34
2023-03-30T00:14:44.462Z,98510.31
2023-03-30T00:15:47.934Z,98508.59
2023-03-30T00:16:53.485Z,98505.78
2023-03-30T00:17:57.314Z,98506.63
2023-03-30T00:19:00.583Z,98506.44
2023-03-30T00:20:09.163Z,98513.16
2023-03-30T00:21:12.199Z,98506.97
2023-03-30T00:22:16.285Z,98511.09
2023-03-30T00:23:18.709Z,98509.28
2023-03-30T00:24:22.265Z,98508.22
2023-03-30T00:25:24.547Z,98508.97
2023-03-30T00:26:28.434Z,98500.19
2023-03-30T00:27:31.364Z,98506.06
2023-03-30T00:28:34.927Z,98501.53
2023-03-30T00:29:46.191Z,98504.03
2023-03-30T00:30:55.002Z,98502.19
2023-03-30T00:31:58.894Z,98496.91
2023-03-30T00:33:05.936Z,98490.81
2023-03-30T00:34:09.658Z,98489.78
2023-03-30T00:35:14.213Z,98479.44
2023-03-30T00:36:17.016Z,98482.03
2023-03-30T00:37:21.102Z,98480.25
2023-03-30T00:38:27.402Z,98489.78
2023-03-30T00:39:30.975Z,98484.63
2023-03-30T00:40:35.115Z,98484.63
2023-03-30T00:41:48.781Z,98479.63
2023-03-30T00:42:51.374Z,98477.88
2023-03-30T00:43:59.531Z,98478.81
2023-03-30T00:45:18.158Z,98489.38
2023-03-30T00:46:23.078Z,98480.03
2023-03-30T00:47:28.074Z,98481.91
2023-03-30T00:48:40.756Z,98473.38
2023-03-30T00:49:43.976Z,98483.84
2023-03-30T00:50:51.778Z,98476.19
2023-03-30T00:51:54.452Z,98472.84
2023-03-30T00:53:01.136Z,98477.19
2023-03-30T00:54:08.076Z,98471.31
2023-03-30T00:55:12.678Z,98479.06
2023-03-30T00:57:37.221Z,98466.31
2023-03-30T00:58:43.728Z,98471.50
2023-03-30T00:59:47.434Z,98477.50
2023-03-30T01:00:53.169Z,98472.31
2023-03-30T01:01:56.317Z,98468.78
2023-03-30T01:03:04.417Z,98476.47
2023-03-30T01:04:08.157Z,98474.81
2023-03-30T01:05:12.141Z,98474.81
2023-03-30T01:06:18.124Z,98469.66
2023-03-30T01:07:24.213Z,98470.47
2023-03-30T01:08:32.657Z,98472.13
2023-03-30T01:09:34.870Z,98469.53
2023-03-30T01:10:38.380Z,98471.19
2023-03-30T01:11:41.566Z,98469.44
2023-03-30T01:12:44.349Z,98473.91
2023-03-30T01:13:49.907Z,98464.56
2023-03-30T01:14:52.228Z,98467.34
2023-03-30T01:16:05.585Z,98466.72
2023-03-30T01:17:18.126Z,98467.94
2023-03-30T01:18:33.281Z,98460.47
2023-03-30T01:20:21.029Z,98463.56
2023-03-30T01:21:35.689Z,98464.66
2023-03-30T01:22:50.621Z,98455.34
2023-03-30T01:24:21.131Z,98461.53
2023-03-30T01:25:40.767Z,98456.66
2023-03-30T01:26:49.920Z,98450.84
2023-03-30T01:28:14.812Z,98452.06
2023-03-30T01:29:44.551Z,98446.25
2023-03-30T01:31:18.337Z,98441.47
2023-03-30T01:32:45.209Z,98442.56
2023-03-30T01:34:06.379Z,98441.13
2023-03-30T01:35:25.426Z,98443.88
2023-03-30T01:36:45.282Z,98433.00
2023-03-30T01:37:59.651Z,98441.78
2023-03-30T01:39:14.754Z,98435.75
2023-03-30T01:40:19.110Z,98435.03
2023-03-30T01:41:26.254Z,98434.31
2023-03-30T01:42:37.970Z,98432.72
2023-03-30T01:43:46.381Z,98429.53
2023-03-30T01:44:56.547Z,98433.00
2023-03-30T01:46:01.228Z,98428.88
2023-03-30T01:47:10.554Z,98433.22
2023-03-30T01:48:17.649Z,98428.06
2023-03-30T01:49:25.217Z,98425.53
2023-03-30T01:50:31.638Z,98423.25
2023-03-30T01:51:39.658Z,98425.84
2023-03-30T01:52:50.397Z,98431.00
2023-03-30T01:54:27.997Z,98428.44
2023-03-30T01:55:34.541Z,98419.09
2023-03-30T01:56:40.863Z,98423.34
2023-03-30T01:57:47.699Z,98425.09
2023-03-30T01:58:55.486Z,98425.91
2023-03-30T02:00:01.317Z,98419.81
2023-03-30T02:01:05.882Z,98419.75
2023-03-30T02:02:11.215Z,98420.47
2023-03-30T02:03:15.539Z,98420.38
2023-03-30T02:04:20.646Z,98422.88
2023-03-30T02:05:27.645Z,98412.56
2023-03-30T02:06:38.949Z,98419.38
2023-03-30T02:07:43.113Z,98420.19
2023-03-30T02:08:49.630Z,98419.38
2023-03-30T02:09:57.288Z,98421.22
2023-03-30T02:11:00.094Z,98423.88
2023-03-30T02:12:14.829Z,98417.06
2023-03-30T02:13:19.766Z,98423.25
2023-03-30T02:14:25.888Z,98416.41
2023-03-30T02:15:33.342Z,98425.00
2023-03-30T02:16:42.116Z,98424.25
2023-03-30T02:17:47.598Z,98418.44
2023-03-30T02:18:54.762Z,98421.22
2023-03-30T02:19:58.308Z,98423.06
2023-03-30T02:21:02.734Z,98426.66
2023-03-30T02:22:08.837Z,98423.44
2023-03-30T02:23:13.577Z,98413.31
2023-03-30T02:24:19.349Z,98416.16
2023-03-30T02:25:32.354Z,98418.25
2023-03-30T02:26:37.098Z,98417.72
2023-03-30T02:27:46.145Z,98418.00
2023-03-30T02:28:56.295Z,98416.53
2023-03-30T02:30:00.249Z,98418.34
2023-03-30T02:31:04.289Z,98414.94
2023-03-30T02:34:03.180Z,98409.31
2023-03-30T02:35:18.939Z,98409.31
2023-03-30T02:36:32.672Z,98405.91
2023-03-30T02:37:47.792Z,98405.91
2023-03-30T02:39:00.440Z,98407.66
2023-03-30T02:40:14.032Z,98412.00
2023-03-30T02:41:28.545Z,98408.75
2023-03-30T02:42:50.698Z,98411.44
2023-03-30T02:44:00.789Z,98411.50
2023-03-30T02:45:22.952Z,98407.28
2023-03-30T02:46:37.604Z,98408.28
2023-03-30T02:47:49.986Z,98405.78
2023-03-30T02:48:58.866Z,98408.34
2023-03-30T02:50:07.202Z,98406.63
2023-03-30T02:53:10.410Z,98409.94
2023-03-30T02:54:25.920Z,98407.38
2023-03-30T02:55:52.616Z,98409.94
2023-03-30T02:57:08.414Z,98409.75
2023-03-30T02:58:16.843Z,98403.69
2023-03-30T02:59:38.232Z,98404.41
2023-03-30T03:00:44.523Z,98399.09
2023-03-30T03:01:56.102Z,98397.25
2023-03-30T03:03:05.634Z,98393.66
2023-03-30T03:04:11.422Z,98395.22
2023-03-30T03:05:34.488Z,98395.13
2023-03-30T03:07:02.916Z,98396.81
2023-03-30T03:08:06.666Z,98391.53
2023-03-30T03:09:10.727Z,98399.19
2023-03-30T03:10:14.993Z,98394.78
2023-03-30T03:11:18.473Z,98389.53
2023-03-30T03:12:22.231Z,98383.44
2023-03-30T03:13:25.428Z,98379.00
2023-03-30T03:14:27.778Z,98378.94
2023-03-30T03:15:32.048Z,98383.97
2023-03-30T03:16:42.396Z,98383.06
2023-03-30T03:17:51.713Z,98374.38
2023-03-30T03:18:54.333Z,98377.72
2023-03-30T03:19:57.795Z,98379.38
2023-03-30T03:21:00.576Z,98369.06
2023-03-30T03:22:06.052Z,98374.22
2023-03-30T03:23:11.392Z,98371.75
2023-03-30T03:24:26.777Z,98369.34
2023-03-30T03:25:48.398Z,98365.28
2023-03-30T03:26:54.048Z,98373.13
2023-03-30T03:27:59.877Z,98372.28
2023-03-30T03:29:09.359Z,98367.94
2023-03-30T03:30:12.964Z,98366.19
2023-03-30T03:31:24.480Z,98361.03
2023-03-30T03:32:26.985Z,98364.44
2023-03-30T03:33:32.350Z,98363.50
2023-03-30T03:34:44.718Z,98362.69
2023-03-30T03:35:53.987Z,98363.50
2023-03-30T03:37:13.358Z,98351.63
2023-03-30T03:38:16.111Z,98354.94
2023-03-30T03:39:19.668Z,98351.53
2023-03-30T03:40:22.245Z,98336.06
2023-03-30T03:41:25.135Z,98334.41
2023-03-30T03:42:27.147Z,98331.81
2023-03-30T03:43:59.285Z,98331.94
2023-03-30T03:45:02.491Z,98332.75
2023-03-30T03:46:16.492Z,98329.13
2023-03-30T03:47:34.932Z,98331.66
2023-03-30T03:48:38.698Z,98327.22
2023-03-30T03:49:42.337Z,98333.84
2023-03-30T03:50:46.636Z,98331.88
2023-03-30T03:51:54.687Z,98327.47
2023-03-30T03:52:58.519Z,98327.22
2023-03-30T03:54:01.407Z,98337.31
2023-03-30T03:55:08.202Z,98332.91
2023-03-30T03:56:14.863Z,98330.94
2023-03-30T03:57:17.216Z,98329.00
2023-03-30T03:58:20.398Z,98327.19
2023-03-30T03:59:24.241Z,98330.31
2023-03-30T04:00:27.493Z,98334.44
2023-03-30T04:01:32.070Z,98327.41
2023-03-30T04:02:35.320Z,98332.50
2023-03-30T04:04:03.713Z,98332.41
2023-03-30T04:05:08.754Z,98327.13
2023-03-30T04:06:13.268Z,98330.47
2023-03-30T04:07:17.017Z,98329.53
2023-03-30T04:08:19.498Z,98329.31
2023-03-30T04:09:23.605Z,98328.31
2023-03-30T04:10:50.797Z,98317.97
2023-03-30T04:12:20.338Z,98318.91
2023-03-30T04:13:42.825Z,98323.25
2023-03-30T04:15:13.339Z,98316.53
2023-03-30T04:16:37.375Z,98330.53
2023-03-30T04:18:12.914Z,98315.53
2023-03-30T04:19:42.152Z,98320.34
2023-03-30T04:20:53.217Z,98315.38
2023-03-30T04:22:13.739Z,98323.31
2023-03-30T04:23:36.081Z,98319.25
2023-03-30T04:24:55.638Z,98324.41
2023-03-30T04:26:18.628Z,98318.53
2023-03-30T04:27:57.637Z,98321.13
2023-03-30T04:29:40.714Z,98313.53
2023-03-30T04:31:05.448Z,98316.06
2023-03-30T04:32:38.929Z,98318.63
2023-03-30T04:33:53.337Z,98315.13
2023-03-30T04:35:18.043Z,98312.53
2023-03-30T04:36:32.652Z,98317.88
2023-03-30T04:37:58.183Z,98313.53
2023-03-30T04:39:30.518Z,98305.91
2023-03-30T04:40:44.987Z,98307.56
2023-03-30T04:41:54.350Z,98303.22
2023-03-30T04:43:36.834Z,98304.16
2023-03-30T04:45:01.910Z,98303.97
2023-03-30T04:46:28.341Z,98309.84
2023-03-30T04:47:47.758Z,98298.44
2023-03-30T04:49:09.626Z,98295.66
2023-03-30T04:50:31.947Z,98291.22
2023-03-30T04:52:00.123Z,98297.84
2023-03-30T04:53:23.195Z,98294.34
2023-03-30T04:54:50.038Z,98293.25
2023-03-30T04:56:12.763Z,98286.09
2023-03-30T04:57:38.798Z,98290.97
2023-03-30T04:58:50.351Z,98291.63
2023-03-30T05:00:14.276Z,98281.94
2023-03-30T05:01:42.228Z,98285.97
2023-03-30T05:03:03.216Z,98277.91
2023-03-30T05:04:41.574Z,98282.91
2023-03-30T05:05:56.062Z,98269.78
2023-03-30T05:07:29.183Z,98273.00
2023-03-30T05:09:10.905Z,98274.44
2023-03-30T05:10:35.555Z,98270.75
2023-03-30T05:12:04.776Z,98261.06
2023-03-30T05:13:24.309Z,98272.75
2023-03-30T05:14:32.278Z,98268.94
2023-03-30T05:15:56.082Z,98267.69
2023-03-30T05:17:26.957Z,98263.88
2023-03-30T05:18:51.928Z,98262.75
2023-03-30T05:20:15.208Z,98261.41
2023-03-30T05:21:37.017Z,98263.56
2023-03-30T05:22:53.776Z,98260.56
2023-03-30T05:24:14.190Z,98263.59
2023-03-30T05:25:36.958Z,98257.25
2023-03-30T05:27:04.806Z,98265.53
2023-03-30T05:28:23.507Z,98259.22
2023-03-30T05:29:46.242Z,98260.69
2023-03-30T05:31:09.219Z,98251.78
2023-03-30T05:32:32.473Z,98256.72
2023-03-30T05:33:54.725Z,98257.47
2023-03-30T05:35:27.982Z,98254.66
2023-03-30T05:36:57.790Z,98251.88
2023-03-30T05:38:24.009Z,98251.75
2023-03-30T05:39:46.019Z,98261.09
2023-03-30T05:41:12.814Z,98252.19
2023-03-30T05:42:41.947Z,98243.16
2023-03-30T05:44:23.387Z,98253.19
2023-03-30T05:45:52.908Z,98252.16
2023-03-30T05:47:09.730Z,98251.81
2023-03-30T05:48:24.058Z,98247.28
2023-03-30T05:49:55.474Z,98255.53
2023-03-30T05:51:08.652Z,98254.38
2023-03-30T05:52:26.076Z,98253.22
2023-03-30T05:54:05.344Z,98248.53
2023-03-30T05:55:27.793Z,98250.00
2023-03-30T05:56:52.506Z,98248.84
2023-03-30T05:58:08.797Z,98242.72
2023-03-30T05:59:25.736Z,98241.66
2023-03-30T06:00:41.598Z,98232.75
2023-03-30T06:02:01.118Z,98232.41
2023-03-30T06:03:04.476Z,98223.38
2023-03-30T06:04:19.151Z,98222.91
2023-03-30T06:05:35.551Z,98226.75
2023-03-30T06:06:40.878Z,98225.34
2023-03-30T06:07:45.760Z,98226.47
2023-03-30T06:08:49.354Z,98225.69
2023-03-30T06:09:54.837Z,98227.59
2023-03-30T06:11:03.208Z,98223.47
2023-03-30T06:12:16.275Z,98230.56
2023-03-30T06:13:18.570Z,98222.94
2023-03-30T06:14:25.750Z,98222.25
2023-03-30T06:15:47.244Z,98225.88
2023-03-30T06:16:55.282Z,98229.44
2023-03-30T06:17:59.339Z,98224.63
2023-03-30T06:19:02.077Z,98227.34
2023-03-30T06:20:12.536Z,98233.56
2023-03-30T06:21:20.764Z,98232.03
2023-03-30T06:22:34.223Z,98232.50
2023-03-30T06:23:45.404Z,98223.53
2023-03-30T06:24:53.323Z,98230.97
2023-03-30T06:25:57.698Z,98226.47
2023-03-30T06:27:05.192Z,98221.75
2023-03-30T06:28:09.232Z,98231.66
2023-03-30T06:29:11.599Z,98222.66
2023-03-30T06:30:18.310Z,98223.50
2023-03-30T06:31:26.260Z,98225.03
2023-03-30T06:33:08.674Z,98220.75
2023-03-30T06:34:16.019Z,98225.88
2023-03-30T06:35:24.336Z,98216.97
2023-03-30T06:36:44.786Z,98216.75
2023-03-30T06:38:00.432Z,98212.03
2023-03-30T06:39:06.616Z,98213.66
2023-03-30T06:40:13.613Z,98215.19
2023-03-30T06:41:21.592Z,98223.69
2023-03-30T06:42:27.525Z,98221.66
2023-03-30T06:43:58.112Z,98219.28
2023-03-30T06:45:10.426Z,98223.00
2023-03-30T06:46:15.190Z,98220.03
2023-03-30T06:47:23.361Z,98212.47
2023-03-30T06:48:28.627Z,98215.38
2023-03-30T06:49:57.983Z,98205.44
2023-03-30T06:51:26.591Z,98211.09
2023-03-30T06:52:34.632Z,98209.88
2023-03-30T06:53:38.033Z,98212.69
2023-03-30T06:54:41.249Z,98205.06
2023-03-30T06:55:46.907Z,98205.13
2023-03-30T06:56:57.684Z,98207.81
2023-03-30T06:58:04.017Z,98207.28
2023-03-30T06:59:07.215Z,98209.38
2023-03-30T07:00:44.731Z,98204.75
2023-03-30T07:02:08.232Z,98206.16
2023-03-30T07:03:31.094Z,98205.19
2023-03-30T07:05:04.192Z,98201.75
2023-03-30T07:06:35.175Z,98205.03
2023-03-30T07:07:37.741Z,98197.66
2023-03-30T07:08:42.120Z,98195.34
2023-03-30T07:09:47.572Z,98190.59
2023-03-30T07:10:57.076Z,98195.16
2023-03-30T07:12:07.034Z,98191.03
2023-03-30T07:13:10.447Z,98194.78
2023-03-30T07:14:16.597Z,98193.28
2023-03-30T07:15:20.719Z,98194.28
2023-03-30T07:16:24.805Z,98199.78
2023-03-30T07:17:28.393Z,98200.88
2023-03-30T07:18:32.538Z,98202.00
2023-03-30T07:19:34.800Z,98204.06
2023-03-30T07:20:37.904Z,98200.22
2023-03-30T07:21:52.179Z,98205.88
2023-03-30T07:22:58.425Z,98198.56
2023-03-30T07:24:01.844Z,98206.53
2023-03-30T07:25:12.129Z,98209.44
2023-03-30T07:26:15.468Z,98208.59
2023-03-30T07:27:27.275Z,98205.31
2023-03-30T07:28:38.182Z,98200.22
2023-03-30T07:29:41.521Z,98185.13
2023-03-30T07:30:43.650Z,98180.31
2023-03-30T07:31:48.119Z,98172.06
2023-03-30T07:32:51.048Z,98174.28
2023-03-30T07:33:54.615Z,98177.56
2023-03-30T07:35:01.905Z,98177.00
2023-03-30T07:36:05.349Z,98176.59
2023-03-30T07:37:10.543Z,98167.38
2023-03-30T07:38:14.206Z,98161.31
2023-03-30T07:39:21.617Z,98153.28
2023-03-30T07:40:27.588Z,98156.97
2023-03-30T07:41:32.021Z,98163.84
2023-03-30T07:42:35.669Z,98170.56
2023-03-30T07:43:40.531Z,98178.78
2023-03-30T07:44:43.596Z,98173.97
2023-03-30T07:45:51.709Z,98180.63
2023-03-30T07:47:01.688Z,98180.91
2023-03-30T07:48:04.996Z,98180.47
2023-03-30T07:49:08.033Z,98176.72
2023-03-30T07:50:10.571Z,98178.38
2023-03-30T07:51:15.225Z,98183.47
2023-03-30T07:52:30.471Z,98171.22
2023-03-30T07:53:38.030Z,98174.22
2023-03-30T07:54:49.977Z,98171.69
2023-03-30T07:55:55.288Z,98172.44
2023-03-30T07:57:06.341Z,98173.06
2023-03-30T07:58:09.626Z,98169.72
2023-03-30T07:59:13.645Z,98158.44
2023-03-30T08:00:21.879Z,98156.47
2023-03-30T08:01:54.563Z,98158.13
2023-03-30T08:03:18.103Z,98155.59
2023-03-30T08:04:26.337Z,98148.38
2023-03-30T08:05:30.329Z,98157.34
2023-03-30T08:06:50.245Z,98164.97
2023-03-30T08:07:54.815Z,98158.66
2023-03-30T08:09:04.555Z,98159.34
2023-03-30T08:10:16.402Z,98167.44
2023-03-30T08:11:19.324Z,98163.88
2023-03-30T08:12:22.699Z,98159.13
2023-03-30T08:13:25.956Z,98159.00
2023-03-30T08:14:29.312Z,98155.72
2023-03-30T08:15:32.254Z,98156.03
2023-03-30T08:16:34.337Z,98153.88
2023-03-30T08:17:37.494Z,98152.94
2023-03-30T08:18:41.601Z,98163.25
2023-03-30T08:19:45.317Z,98164.56
2023-03-30T08:21:14.596Z,98159.38
2023-03-30T08:22:17.134Z,98160.03
2023-03-30T08:23:22.332Z,98159.09
2023-03-30T08:24:24.488Z,98150.75
2023-03-30T08:25:28.369Z,98147.31
2023-03-30T08:26:33.092Z,98153.88
2023-03-30T08:27:36.783Z,98153.88
2023-03-30T08:28:43.635Z,98150.91
2023-03-30T08:29:46.795Z,98150.13
2023-03-30T08:30:50.059Z,98144.38
2023-03-30T08:31:53.147Z,98145.69
2023-03-30T08:33:00.586Z,98154.53
2023-03-30T08:34:11.781Z,98147.50
2023-03-30T08:35:19.181Z,98148.63
2023-03-30T08:36:25.754Z,98150.44
2023-03-30T08:37:32.022Z,98137.31
2023-03-30T08:38:46.516Z,98142.41
2023-03-30T08:40:38.769Z,98146.03
2023-03-30T08:41:53.534Z,98134.22
2023-03-30T08:43:28.569Z,98143.72
2023-03-30T08:44:39.398Z,98142.72
2023-03-30T08:45:53.848Z,98139.28
2023-03-30T08:47:11.056Z,98135.53
2023-03-30T08:48:20.953Z,98133.22
2023-03-30T08:49:26.606Z,98130.59
2023-03-30T08:50:35.460Z,98125.47
2023-03-30T08:51:43.147Z,98136.66
2023-03-30T08:53:01.267Z,98127.63
2023-03-30T08:54:12.143Z,98132.22
2023-03-30T08:55:25.729Z,98133.69
2023-03-30T08:56:31.954Z,98149.78
2023-03-30T08:57:54.513Z,98136.00
2023-03-30T08:59:31.128Z,98126.97
2023-03-30T09:00:48.023Z,98126.34
2023-03-30T09:01:55.247Z,98121.41
2023-03-30T09:03:05.227Z,98117.94
2023-03-30T09:04:16.789Z,98112.69
2023-03-30T09:05:48.648Z,98108.56
2023-03-30T09:07:06.911Z,98103.16
2023-03-30T09:08:15.936Z,98097.56
2023-03-30T09:09:29.244Z,98101.34
2023-03-30T09:10:38.906Z,98097.56
2023-03-30T09:11:42.017Z,98086.09
2023-03-30T09:12:47.992Z,98085.94
2023-03-30T09:13:53.041Z,98100.72
2023-03-30T09:15:00.314Z,98101.22
2023-03-30T09:16:15.447Z,98101.22
2023-03-30T09:17:24.160Z,98096.44
2023-03-30T09:18:36.437Z,98089.88
2023-03-30T09:19:54.714Z,98085.13
2023-03-30T09:21:06.627Z,98090.84
2023-03-30T09:22:16.236Z,98078.97
2023-03-30T09:23:20.392Z,98082.59
2023-03-30T09:24:39.801Z,98089.13
2023-03-30T09:26:36.571Z,98077.34
2023-03-30T09:27:43.175Z,98081.59
2023-03-30T09:28:56.202Z,98079.78
2023-03-30T09:30:06.692Z,98079.16
2023-03-30T09:31:16.125Z,98078.47
2023-03-30T09:32:24.869Z,98087.03
2023-03-30T09:33:30.910Z,98075.53
2023-03-30T09:34:47.188Z,98077.78
2023-03-30T09:36:08.332Z,98078.78
2023-03-30T09:37:18.506Z,98073.03
2023-03-30T09:38:25.238Z,98075.72
2023-03-30T09:39:31.632Z,98073.78
2023-03-30T09:40:58.201Z,98080.50
2023-03-30T09:42:32.953Z,98069.84
2023-03-30T09:43:42.297Z,98070.19
2023-03-30T09:44:51.684Z,98052.63
2023-03-30T09:45:56.162Z,98061.66
2023-03-30T09:47:00.359Z,98059.69
2023-03-30T09:49:58.058Z,98049.50
2023-03-30T09:51:02.029Z,98058.06
2023-03-30T09:52:19.240Z,98046.88
2023-03-30T09:53:26.294Z,98040.63
2023-03-30T09:54:41.295Z,98039.25
2023-03-30T09:56:01.833Z,98028.50
2023-03-30T09:57:05.201Z,98037.75
2023-03-30T09:58:13.222Z,98030.22
2023-03-30T09:59:39.084Z,98023.66
2023-03-30T10:00:43.185Z,98016.53
2023-03-30T10:01:54.306Z,98027.22
2023-03-30T10:03:01.322Z,98026.88
2023-03-30T10:04:11.104Z,98016.38
2023-03-30T10:05:19.108Z,98008.00
2023-03-30T10:06:28.375Z,98019.91
2023-03-30T10:07:39.197Z,98014.69
2023-03-30T10:08:51.263Z,98023.50
2023-03-30T10:09:55.986Z,98018.06
2023-03-30T10:11:07.930Z,98018.00
2023-03-30T10:12:22.579Z,98017.34
2023-03-30T10:13:29.816Z,98018.00
2023-03-30T10:14:35.603Z,98005.44
2023-03-30T10:15:51.623Z,98014.34
2023-03-30T10:16:54.553Z,98005.53
2023-03-30T10:18:27.536Z,98014.28
2023-03-30T10:19:32.187Z,98018.00
2023-03-30T10:20:36.105Z,98014.91
2023-03-30T10:21:48.149Z,98016.78
2023-03-30T10:22:52.227Z,98009.34
2023-03-30T10:24:04.216Z,98007.34
2023-03-30T10:25:11.086Z,97995.88
2023-03-30T10:26:20.554Z,98000.66
2023-03-30T10:27:29.190Z,98010.53
2023-03-30T10:28:33.493Z,97996.28
2023-03-30T10:29:38.986Z,98005.53
2023-03-30T10:30:41.153Z,97993.91
2023-03-30T10:31:48.098Z,97998.88
2023-03-30T10:32:51.981Z,97990.19
2023-03-30T10:33:58.548Z,97995.19
2023-03-30T10:35:02.053Z,97998.56
2023-03-30T10:36:07.142Z,97987.34
2023-03-30T10:37:12.855Z,97980.75
2023-03-30T10:38:15.421Z,97987.09
2023-03-30T10:39:50.704Z,97976.31
2023-03-30T10:41:02.887Z,97976.41
2023-03-30T10:42:16.124Z,97975.03
2023-03-30T10:43:22.152Z,97970.59
2023-03-30T10:44:28.003Z,97972.13
2023-03-30T10:45:39.023Z,97966.94
2023-03-30T10:46:42.786Z,97963.88
2023-03-30T10:49:48.783Z,97966.75
2023-03-30T10:50:56.757Z,97944.78
2023-03-30T10:52:05.503Z,97955.59
2023-03-30T10:53:46.245Z,97947.56
2023-03-30T10:54:56.911Z,97961.47
2023-03-30T10:56:05.994Z,97955.72
2023-03-30T10:57:51.617Z,97952.88
2023-03-30T10:59:06.984Z,97942.97
2023-03-30T11:00:24.940Z,97948.16
2023-03-30T11:01:36.041Z,97941.69
2023-03-30T11:03:17.107Z,97931.69
2023-03-30T11:04:28.715Z,97929.47
2023-03-30T11:05:33.620Z,97929.47
2023-03-30T11:06:43.345Z,97917.78
2023-03-30T11:07:48.526Z,97917.06
2023-03-30T11:08:53.507Z,97922.03
2023-03-30T11:10:16.146Z,97923.56
2023-03-30T11:11:25.678Z,97930.00
2023-03-30T11:12:43.089Z,97931.28
2023-03-30T11:13:50.522Z,97905.78
2023-03-30T11:14:59.123Z,97918.44
2023-03-30T11:16:06.343Z,97910.16
2023-03-30T11:17:14.536Z,97916.09
2023-03-30T11:18:20.521Z,97895.78
2023-03-30T11:19:24.745Z,97923.84
2023-03-30T11:20:29.401Z,97913.88
2023-03-30T11:21:36.607Z,97909.19
2023-03-30T11:22:43.610Z,97914.06
2023-03-30T11:23:50.405Z,97915.66
2023-03-30T11:24:56.888Z,97917.31
2023-03-30T11:26:02.925Z,97917.75
2023-03-30T11:27:11.971Z,97911.31
2023-03-30T11:28:21.336Z,97920.47
2023-03-30T11:29:34.999Z,97913.94
2023-03-30T11:30:39.530Z,97917.34
2023-03-30T11:31:54.537Z,97923.22
2023-03-30T11:33:00.345Z,97926.97
2023-03-30T11:34:09.985Z,97916.06
2023-03-30T11:35:18.288Z,97917.28
2023-03-30T11:36:25.523Z,97927.03
2023-03-30T11:37:31.409Z,97924.59
2023-03-30T11:38:42.528Z,97927.44
2023-03-30T11:39:50.604Z,97920.78
2023-03-30T11:40:56.656Z,97927.72
2023-03-30T11:42:04.508Z,97921.13
2023-03-30T11:43:10.009Z,97919.72
2023-03-30T11:44:17.372Z,97922.19
2023-03-30T11:45:42.018Z,97914.84
2023-03-30T11:46:51.875Z,97909.41
2023-03-30T11:48:08.046Z,97901.97
2023-03-30T11:49:38.618Z,97906.19
2023-03-30T11:50:54.007Z,97907.28
2023-03-30T11:52:07.770Z,97898.91
2023-03-30T11:53:22.141Z,97895.03
2023-03-30T11:55:03.536Z,97897.00
2023-03-30T11:56:09.674Z,97886.88
2023-03-30T11:57:15.490Z,97878.50
2023-03-30T12:00:31.037Z,97877.88
2023-03-30T12:02:04.448Z,97880.31
2023-03-30T12:04:50.594Z,97874.16
2023-03-30T12:06:17.230Z,97865.53
2023-03-30T12:07:31.496Z,97861.38
2023-03-30T12:08:59.711Z,97864.09
2023-03-30T12:10:08.493Z,97862.91
2023-03-30T12:11:16.934Z,97857.91
2023-03-30T12:12:39.859Z,97856.59
2023-03-30T12:13:51.346Z,97860.94
2023-03-30T12:15:06.060Z,97851.50
2023-03-30T12:16:17.171Z,97860.47
2023-03-30T12:17:36.341Z,97853.75
2023-03-30T12:18:42.712Z,97866.75
2023-03-30T12:19:56.521Z,97864.53
2023-03-30T12:21:29.941Z,97858.19
2023-03-30T12:22:37.109Z,97855.88
2023-03-30T12:23:53.211Z,97852.94
2023-03-30T12:25:15.164Z,97860.31
2023-03-30T12:26:32.348Z,97857.47
2023-03-30T12:27:53.764Z,97855.22
2023-03-30T12:30:16.481Z,97852.34
2023-03-30T12:31:21.955Z,97863.22
2023-03-30T12:32:28.256Z,97853.09
2023-03-30T12:33:38.150Z,97858.72
2023-03-30T12:34:45.381Z,97854.44
2023-03-30T12:35:56.766Z,97859.72
2023-03-30T12:37:04.408Z,97853.25
2023-03-30T12:38:17.757Z,97857.16
2023-03-30T12:39:37.540Z,97854.16
2023-03-30T12:40:47.516Z,97860.50
2023-03-30T12:41:53.180Z,97861.56
2023-03-30T12:43:08.682Z,97860.00
2023-03-30T12:44:48.388Z,97850.91
2023-03-30T12:46:06.813Z,97854.47
2023-03-30T12:47:43.879Z,97860.09
2023-03-30T12:48:59.479Z,97855.78
2023-03-30T12:50:14.997Z,97857.16
2023-03-30T12:51:35.101Z,97857.69
2023-03-30T12:52:44.608Z,97852.16
2023-03-30T12:53:57.610Z,97851.91
2023-03-30T12:55:12.713Z,97859.53
2023-03-30T12:56:20.280Z,97859.66
2023-03-30T12:57:43.295Z,97864.66
2023-03-30T12:58:59.129Z,97863.75
2023-03-30T13:00:20.112Z,97865.28
2023-03-30T13:01:37.772Z,97854.66
2023-03-30T13:03:00.018Z,97861.28
2023-03-30T13:05:37.089Z,97861.09
2023-03-30T13:06:49.627Z,97857.19
2023-03-30T13:07:51.954Z,97857.56
2023-03-30T13:09:00.230Z,97859.91
2023-03-30T13:10:36.807Z,97859.63
2023-03-30T13:11:47.040Z,97860.34
2023-03-30T13:12:49.602Z,97855.63
2023-03-30T13:13:57.779Z,97862.88
2023-03-30T13:15:02.287Z,97854.34
2023-03-30T13:16:09.200Z,97855.34
2023-03-30T13:17:14.523Z,97858.16
2023-03-30T13:18:31.961Z,97858.16
2023-03-30T13:19:49.516Z,97864.44
2023-03-30T13:21:09.001Z,97867.88
2023-03-30T13:22:31.791Z,97859.78
2023-03-30T13:23:37.857Z,97860.59
2023-03-30T13:24:44.422Z,97860.59
2023-03-30T13:25:54.482Z,97864.88
2023-03-30T13:27:21.366Z,97862.06
2023-03-30T13:28:48.826Z,97866.34
2023-03-30T13:29:55.897Z,97867.97
2023-03-30T13:31:02.901Z,97868.44
2023-03-30T13:32:18.749Z,97869.88
2023-03-30T13:33:22.981Z,97874.97
2023-03-30T13:34:40.339Z,97869.72
2023-03-30T13:35:53.943Z,97871.50
2023-03-30T13:37:02.068Z,97877.75
2023-03-30T13:38:32.078Z,97874.50
2023-03-30T13:39:41.777Z,97874.22
2023-03-30T13:41:04.035Z,97870.13
2023-03-30T13:42:20.895Z,97872.13
2023-03-30T13:43:34.178Z,97871.66
2023-03-30T13:44:51.947Z,97873.00
2023-03-30T13:46:15.520Z,97863.84
2023-03-30T13:47:32.576Z,97866.34
2023-03-30T13:48:49.344Z,97854.59
2023-03-30T13:49:59.960Z,97859.38
2023-03-30T13:51:04.344Z,97858.56
2023-03-30T13:52:12.330Z,97864.97
2023-03-30T13:53:17.411Z,97866.78
2023-03-30T13:54:26.442Z,97872.22
2023-03-30T13:55:33.637Z,97872.03
2023-03-30T13:56:38.086Z,97868.59
2023-03-30T13:57:42.185Z,97864.97
2023-03-30T13:58:49.327Z,97865.78
2023-03-30T13:59:55.949Z,97865.78
2023-03-30T14:01:01.348Z,97873.66
2023-03-30T14:02:05.518Z,97869.88
2023-03-30T14:03:28.793Z,97864.44
2023-03-30T14:04:33.594Z,97858.56
2023-03-30T14:05:38.810Z,97870.69
2023-03-30T14:06:45.827Z,97867.25
2023-03-30T14:07:48.983Z,97868.25
2023-03-30T14:08:59.782Z,97874.34
2023-03-30T14:10:04.866Z,97866.63
2023-03-30T14:11:15.813Z,97858.09
2023-03-30T14:12:19.545Z,97873.84
2023-03-30T14:13:22.008Z,97863.34
2023-03-30T14:14:28.198Z,97861.72
2023-03-30T14:15:37.252Z,97862.88
2023-03-30T14:16:43.087Z,97863.06
2023-03-30T14:17:51.685Z,97869.13
2023-03-30T14:18:56.385Z,97868.69
2023-03-30T14:20:07.703Z,97877.53